createdAt,value
2022-08-22T00:00:42.891Z,98230.03
2022-08-22T00:02:52.479Z,98327.46
2022-08-22T00:06:15.483Z,98222.02
2022-08-22T00:11:40.438Z,98212.52
2022-08-22T00:17:54.936Z,98216.08
2022-08-22T00:24:29.222Z,98215.10
2022-08-22T00:30:10.743Z,98226.36
2022-08-22T00:36:16.572Z,98230.89
2022-08-22T00:42:47.090Z,98226.83
2022-08-22T00:49:31.170Z,98223.27
2022-08-22T00:55:53.603Z,98225.92
2022-08-22T01:02:34.533Z,98223.49
2022-08-22T01:09:06.499Z,98223.59
2022-08-22T01:15:10.770Z,98229.18
2022-08-22T01:21:24.631Z,98232.66
2022-08-22T01:27:35.964Z,98229.49
2022-08-22T01:34:13.080Z,98230.55
2022-08-22T01:40:53.567Z,98228.98
2022-08-22T01:46:48.732Z,98233.44
2022-08-22T01:52:12.658Z,98223.73
2022-08-22T01:57:16.368Z,98221.67
2022-08-22T02:03:25.819Z,98219.52
2022-08-22T02:09:47.418Z,98215.58
2022-08-22T02:15:48.143Z,98218.51
2022-08-22T02:22:19.143Z,98223.76
2022-08-22T02:29:07.207Z,98214.18
2022-08-22T02:35:43.186Z,98215.36
2022-08-22T02:41:39.810Z,98216.30
2022-08-22T02:47:16.829Z,98216.20
2022-08-22T02:52:46.602Z,98216.36
2022-08-22T02:58:09.561Z,98215.42
2022-08-22T03:03:45.451Z,98213.05
2022-08-22T03:09:33.466Z,98217.70
2022-08-22T03:15:30.837Z,98214.53
2022-08-22T03:21:31.299Z,98217.64
2022-08-22T03:28:10.217Z,98224.50
2022-08-22T03:34:13.390Z,98229.20
2022-08-22T03:40:11.009Z,98231.11
2022-08-22T03:46:28.108Z,98232.20
2022-08-22T03:52:21.689Z,98236.19
2022-08-22T03:59:11.366Z,98231.64
2022-08-22T04:05:36.803Z,98221.00
2022-08-22T04:12:28.522Z,98220.80
2022-08-22T04:19:23.170Z,98229.96
2022-08-22T04:25:47.585Z,98229.19
2022-08-22T04:32:23.922Z,98228.33
2022-08-22T04:38:50.009Z,98233.89
2022-08-22T04:44:44.999Z,98238.73
2022-08-22T04:50:38.006Z,98244.70
2022-08-22T04:56:56.206Z,98252.89
2022-08-22T05:02:29.856Z,98263.56
2022-08-22T05:08:16.227Z,98268.13
2022-08-22T05:13:53.882Z,98268.91
2022-08-22T05:19:40.960Z,98264.58
2022-08-22T05:25:12.311Z,98273.83
2022-08-22T05:30:39.666Z,98279.89
2022-08-22T05:35:57.873Z,98283.55
2022-08-22T05:41:34.564Z,98291.41
2022-08-22T05:47:21.607Z,98298.14
2022-08-22T05:54:21.826Z,98309.83
2022-08-22T06:00:36.971Z,98316.08
2022-08-22T06:06:02.339Z,98321.97
2022-08-22T06:12:21.608Z,98318.86
2022-08-22T06:18:28.922Z,98319.09
2022-08-22T06:24:44.610Z,98321.56
2022-08-22T06:30:55.703Z,98325.13
2022-08-22T06:37:11.676Z,98323.18
2022-08-22T06:44:09.468Z,98323.19
2022-08-22T06:49:46.658Z,98324.16
2022-08-22T06:55:46.186Z,98328.40
2022-08-22T07:02:10.693Z,98331.94
2022-08-22T07:07:32.134Z,98331.73
2022-08-22T07:13:19.045Z,98338.89
2022-08-22T07:19:41.690Z,98343.84
2022-08-22T07:26:08.968Z,98343.64
2022-08-22T07:32:20.491Z,98342.98
2022-08-22T07:38:35.461Z,98341.86
2022-08-22T07:44:35.504Z,98331.69
2022-08-22T07:50:27.765Z,98330.36
2022-08-22T07:56:49.125Z,98341.34
2022-08-22T08:02:24.295Z,98350.69
2022-08-22T08:08:02.782Z,98349.81
2022-08-22T08:13:40.110Z,98353.79
2022-08-22T08:19:13.311Z,98357.31
2022-08-22T08:25:13.656Z,98348.91
2022-08-22T08:31:05.723Z,98348.39
2022-08-22T08:37:29.540Z,98346.31
2022-08-22T08:43:31.492Z,98349.34
2022-08-22T08:49:21.050Z,98346.52
2022-08-22T08:55:28.613Z,98342.86
2022-08-22T09:01:45.176Z,98340.68
2022-08-22T09:07:48.061Z,98335.17
2022-08-22T09:13:53.663Z,98333.12
2022-08-22T09:20:20.165Z,98333.95
2022-08-22T09:26:08.907Z,98329.05
2022-08-22T09:31:47.376Z,98326.05
2022-08-22T09:37:17.147Z,98334.42
2022-08-22T09:43:25.838Z,98343.09
2022-08-22T09:49:19.382Z,98349.23
2022-08-22T09:55:18.833Z,98353.90
2022-08-22T10:02:43.570Z,98355.88
2022-08-22T10:08:38.859Z,98362.92
2022-08-22T10:14:50.487Z,98361.64
2022-08-22T10:20:39.155Z,98357.13
2022-08-22T10:26:38.746Z,98356.02
2022-08-22T10:32:36.572Z,98366.39
2022-08-22T10:38:05.890Z,98372.46
2022-08-22T10:44:16.692Z,98379.38
2022-08-22T10:49:45.080Z,98382.00
2022-08-22T10:55:17.446Z,98375.85
2022-08-22T11:01:38.236Z,98373.42
2022-08-22T11:07:23.676Z,98376.48
2022-08-22T11:12:44.597Z,98376.28
2022-08-22T11:18:25.985Z,98377.52
2022-08-22T11:24:34.677Z,98371.44
2022-08-22T11:30:45.365Z,98370.67
2022-08-22T11:37:11.573Z,98370.74
2022-08-22T11:42:54.117Z,98373.43
2022-08-22T11:49:02.470Z,98374.31
2022-08-22T11:54:59.461Z,98375.23
2022-08-22T12:01:05.851Z,98371.79
2022-08-22T12:07:27.505Z,98358.80
2022-08-22T12:13:49.726Z,98360.29
2022-08-22T12:20:22.085Z,98360.46
2022-08-22T12:27:07.837Z,98362.46
2022-08-22T12:33:22.026Z,98351.50
2022-08-22T12:39:27.848Z,98345.98
2022-08-22T12:46:13.204Z,98349.03
2022-08-22T12:52:32.337Z,98345.46
2022-08-22T12:57:54.099Z,98341.80
2022-08-22T13:03:23.577Z,98339.85
2022-08-22T13:08:52.299Z,98346.86
2022-08-22T13:14:30.704Z,98351.26
2022-08-22T13:19:57.392Z,98352.56
2022-08-22T13:25:49.556Z,98348.80
2022-08-22T13:30:56.518Z,98353.52
2022-08-22T13:36:21.889Z,98355.20
2022-08-22T13:42:00.826Z,98359.66
2022-08-22T13:47:27.654Z,98362.05
2022-08-22T13:52:52.474Z,98363.72
2022-08-22T13:59:01.205Z,98363.70
2022-08-22T14:04:53.491Z,98357.63
2022-08-22T14:10:19.255Z,98348.77
2022-08-22T14:15:45.234Z,98340.96
2022-08-22T14:21:11.366Z,98343.48
2022-08-22T14:27:05.135Z,98339.16
2022-08-22T14:32:46.436Z,98337.17
2022-08-22T14:38:32.462Z,98334.64
2022-08-22T14:44:28.265Z,98333.40
2022-08-22T14:49:52.991Z,98343.60
2022-08-22T14:55:27.177Z,98346.45
2022-08-22T15:00:44.888Z,98349.71
2022-08-22T15:06:48.589Z,98345.16
2022-08-22T15:12:41.109Z,98347.00
2022-08-22T15:17:55.108Z,98343.06
2022-08-22T15:23:24.473Z,98344.38
2022-08-22T15:28:53.342Z,98340.44
2022-08-22T15:34:31.230Z,98342.52
2022-08-22T15:40:25.263Z,98343.63
2022-08-22T15:45:50.409Z,98342.76
2022-08-22T15:51:52.513Z,98343.21
2022-08-22T15:57:46.471Z,98337.27
2022-08-22T16:03:33.904Z,98328.27
2022-08-22T16:08:52.060Z,98336.02
2022-08-22T16:15:06.899Z,98330.11
2022-08-22T16:20:19.905Z,98335.78
2022-08-22T16:25:52.866Z,98344.25
2022-08-22T16:31:49.170Z,98350.23
2022-08-22T16:37:53.109Z,98352.09
2022-08-22T16:43:23.720Z,98362.27
2022-08-22T16:49:00.487Z,98356.41
2022-08-22T16:54:55.815Z,98342.41
2022-08-22T17:00:50.424Z,98339.54
2022-08-22T17:06:38.562Z,98337.05
2022-08-22T17:12:26.026Z,98333.86
2022-08-22T17:17:31.322Z,98338.74
2022-08-22T17:22:44.797Z,98348.52
2022-08-22T17:28:49.225Z,98351.52
2022-08-22T17:34:59.629Z,98353.41
2022-08-22T17:40:11.782Z,98348.67
2022-08-22T17:45:56.256Z,98337.15
2022-08-22T17:51:28.326Z,98340.48
2022-08-22T17:57:05.936Z,98338.93
2022-08-22T18:02:40.460Z,98347.21
2022-08-22T18:14:45.409Z,98363.58
2022-08-22T18:20:16.321Z,98373.87
2022-08-22T18:25:42.127Z,98385.17
2022-08-22T18:31:09.198Z,98377.80
2022-08-22T18:36:51.563Z,98383.67
2022-08-22T18:42:56.912Z,98381.98
2022-08-22T18:48:19.199Z,98374.18
2022-08-22T18:54:14.367Z,98367.73
2022-08-22T19:00:26.800Z,98367.12
2022-08-22T19:06:36.532Z,98369.72
2022-08-22T19:12:51.465Z,98380.24
2022-08-22T19:18:56.473Z,98379.35
2022-08-22T19:24:39.456Z,98371.12
2022-08-22T19:30:00.967Z,98371.27
2022-08-22T19:36:18.452Z,98371.94
2022-08-22T19:42:50.574Z,98361.52
2022-08-22T19:48:29.113Z,98359.95
2022-08-22T19:53:42.040Z,98360.91
2022-08-22T19:59:38.959Z,98356.01
2022-08-22T20:06:13.791Z,98357.92
2022-08-22T20:12:02.813Z,98354.23
2022-08-22T20:17:33.023Z,98350.13
2022-08-22T20:23:29.818Z,98337.09
2022-08-22T20:29:23.597Z,98328.50
2022-08-22T20:35:38.957Z,98323.37
2022-08-22T20:41:15.219Z,98312.42
2022-08-22T20:46:53.774Z,98306.67
2022-08-22T20:52:02.857Z,98300.84
2022-08-22T20:57:16.733Z,98298.77
2022-08-22T21:02:31.654Z,98301.21
2022-08-22T21:07:44.601Z,98312.02
2022-08-22T21:13:11.869Z,98310.92
2022-08-22T21:18:39.797Z,98309.91
2022-08-22T21:23:45.049Z,98313.61
2022-08-22T21:29:03.680Z,98316.92
2022-08-22T21:34:11.962Z,98341.36
2022-08-22T21:39:54.615Z,98342.23
2022-08-22T21:46:19.955Z,98349.80
2022-08-22T21:51:41.910Z,98337.92
2022-08-22T21:57:34.626Z,98352.26
2022-08-22T22:03:07.383Z,98351.00
2022-08-22T22:08:18.747Z,98349.89
2022-08-22T22:14:00.607Z,98355.27
2022-08-22T22:19:52.109Z,98349.11
2022-08-22T22:25:40.075Z,98338.81
2022-08-22T22:30:55.246Z,98354.39
2022-08-22T22:36:37.953Z,98340.85
2022-08-22T22:41:45.980Z,98319.94
2022-08-22T22:47:06.620Z,98302.49
2022-08-22T22:52:40.746Z,98296.83
2022-08-22T22:58:40.664Z,98303.02
2022-08-22T23:03:46.196Z,98291.71
2022-08-22T23:09:38.013Z,98296.96
2022-08-22T23:15:16.798Z,98293.16
2022-08-22T23:20:40.172Z,98286.07
2022-08-22T23:26:37.624Z,98266.83
2022-08-22T23:32:16.347Z,98268.04
2022-08-22T23:37:22.390Z,98281.15
2022-08-22T23:42:50.506Z,98303.57
2022-08-22T23:48:38.252Z,98295.96
2022-08-22T23:54:16.399Z,98296.61
